sensor_id;sensor_type;location;lat;lon;timestamp;temperature;humidity
6824;DHT22;58633;49.470;11.004;2023-05-14T00:01:00;12.10;67.10
6824;DHT22;58633;49.470;11.004;2023-05-14T00:03:25;12.50;67.50
6824;DHT22;58633;49.470;11.004;2023-05-14T00:05:51;12.50;67.50
6824;DHT22;58633;49.470;11.004;2023-05-14T00:10:42;12.50;67.40
6824;DHT22;58633;49.470;11.004;2023-05-14T00:13:08;12.30;67.30
6824;DHT22;58633;49.470;11.004;2023-05-14T00:15:33;12.90;68.00
6824;DHT22;58633;49.470;11.004;2023-05-14T00:17:59;12.60;67.60
6824;DHT22;58633;49.470;11.004;2023-05-14T00:22:50;12.50;67.60
6824;DHT22;58633;49.470;11.004;2023-05-14T00:25:16;12.20;67.30
6824;DHT22;58633;49.470;11.004;2023-05-14T00:27:41;12.40;67.40
6824;DHT22;58633;49.470;11.004;2023-05-14T00:30:07;12.20;67.40
6824;DHT22;58633;49.470;11.004;2023-05-14T00:32:33;12.20;67.50
6824;DHT22;58633;49.470;11.004;2023-05-14T00:34:58;12.20;67.50
6824;DHT22;58633;49.470;11.004;2023-05-14T00:37:24;12.20;67.60
6824;DHT22;58633;49.470;11.004;2023-05-14T00:39:50;12.10;67.50
6824;DHT22;58633;49.470;11.004;2023-05-14T00:42:15;12.10;67.60
6824;DHT22;58633;49.470;11.004;2023-05-14T00:44:41;12.10;67.60
6824;DHT22;58633;49.470;11.004;2023-05-14T00:47:07;12.10;67.70
6824;DHT22;58633;49.470;11.004;2023-05-14T00:49:33;12.10;67.70
6824;DHT22;58633;49.470;11.004;2023-05-14T00:51:58;12.00;67.70
6824;DHT22;58633;49.470;11.004;2023-05-14T00:54:25;12.20;67.90
6824;DHT22;58633;49.470;11.004;2023-05-14T00:56:51;11.70;67.50
6824;DHT22;58633;49.470;11.004;2023-05-14T00:59:17;11.90;68.00
6824;DHT22;58633;49.470;11.004;2023-05-14T01:04:09;12.00;67.90
6824;DHT22;58633;49.470;11.004;2023-05-14T01:07:11;11.80;67.90
6824;DHT22;58633;49.470;11.004;2023-05-14T01:09:58;11.40;68.30
6824;DHT22;58633;49.470;11.004;2023-05-14T01:12:41;11.80;68.60
6824;DHT22;58633;49.470;11.004;2023-05-14T01:15:17;11.80;68.50
6824;DHT22;58633;49.470;11.004;2023-05-14T01:17:49;11.80;68.50
6824;DHT22;58633;49.470;11.004;2023-05-14T01:20:16;11.70;68.40
6824;DHT22;58633;49.470;11.004;2023-05-14T01:22:41;11.60;68.60
6824;DHT22;58633;49.470;11.004;2023-05-14T01:25:07;11.80;68.90
6824;DHT22;58633;49.470;11.004;2023-05-14T01:32:47;12.10;69.30
6824;DHT22;58633;49.470;11.004;2023-05-14T01:35:15;11.80;69.00
6824;DHT22;58633;49.470;11.004;2023-05-14T01:37:42;11.60;68.60
6824;DHT22;58633;49.470;11.004;2023-05-14T01:40:09;11.70;68.90
6824;DHT22;58633;49.470;11.004;2023-05-14T01:42:35;11.70;68.80
6824;DHT22;58633;49.470;11.004;2023-05-14T01:45:02;11.60;68.90
6824;DHT22;58633;49.470;11.004;2023-05-14T01:47:27;11.50;68.90
6824;DHT22;58633;49.470;11.004;2023-05-14T01:49:53;11.80;69.00
6824;DHT22;58633;49.470;11.004;2023-05-14T01:52:19;11.80;69.20
6824;DHT22;58633;49.470;11.004;2023-05-14T01:54:46;11.90;69.20
6824;DHT22;58633;49.470;11.004;2023-05-14T01:57:11;11.90;69.40
6824;DHT22;58633;49.470;11.004;2023-05-14T01:59:37;11.80;69.30
6824;DHT22;58633;49.470;11.004;2023-05-14T02:02:03;11.90;69.20
6824;DHT22;58633;49.470;11.004;2023-05-14T02:04:28;12.00;69.20
6824;DHT22;58633;49.470;11.004;2023-05-14T02:06:54;12.00;69.20
6824;DHT22;58633;49.470;11.004;2023-05-14T02:09:20;12.20;69.50
6824;DHT22;58633;49.470;11.004;2023-05-14T02:11:45;11.90;69.20
6824;DHT22;58633;49.470;11.004;2023-05-14T02:14:11;11.90;69.40
6824;DHT22;58633;49.470;11.004;2023-05-14T02:16:36;12.00;69.50
6824;DHT22;58633;49.470;11.004;2023-05-14T02:19:02;11.90;69.40
6824;DHT22;58633;49.470;11.004;2023-05-14T02:21:27;12.20;69.70
6824;DHT22;58633;49.470;11.004;2023-05-14T02:23:53;12.00;70.00
6824;DHT22;58633;49.470;11.004;2023-05-14T02:26:18;11.90;69.10
6824;DHT22;58633;49.470;11.004;2023-05-14T02:28:44;12.10;69.50
6824;DHT22;58633;49.470;11.004;2023-05-14T02:31:10;12.00;69.40
6824;DHT22;58633;49.470;11.004;2023-05-14T02:33:35;11.90;69.50
6824;DHT22;58633;49.470;11.004;2023-05-14T02:36:01;11.70;69.50
6824;DHT22;58633;49.470;11.004;2023-05-14T02:40:52;11.70;69.80
6824;DHT22;58633;49.470;11.004;2023-05-14T02:43:18;11.80;70.60
6824;DHT22;58633;49.470;11.004;2023-05-14T02:45:43;11.80;70.40
6824;DHT22;58633;49.470;11.004;2023-05-14T02:48:09;11.80;70.40
6824;DHT22;58633;49.470;11.004;2023-05-14T02:50:34;12.20;70.90
6824;DHT22;58633;49.470;11.004;2023-05-14T02:53:00;11.80;70.60
6824;DHT22;58633;49.470;11.004;2023-05-14T02:55:26;11.80;70.70
6824;DHT22;58633;49.470;11.004;2023-05-14T02:57:51;11.90;71.00
6824;DHT22;58633;49.470;11.004;2023-05-14T03:00:18;11.90;70.90
6824;DHT22;58633;49.470;11.004;2023-05-14T03:02:43;12.00;71.20
6824;DHT22;58633;49.470;11.004;2023-05-14T03:05:09;11.70;71.00
6824;DHT22;58633;49.470;11.004;2023-05-14T03:07:35;11.80;70.90
6824;DHT22;58633;49.470;11.004;2023-05-14T03:10:00;11.90;71.00
6824;DHT22;58633;49.470;11.004;2023-05-14T03:12:26;11.80;71.00
6824;DHT22;58633;49.470;11.004;2023-05-14T03:14:52;11.90;71.10
6824;DHT22;58633;49.470;11.004;2023-05-14T03:17:17;11.90;70.70
6824;DHT22;58633;49.470;11.004;2023-05-14T03:19:43;11.80;71.00
6824;DHT22;58633;49.470;11.004;2023-05-14T03:22:08;11.90;71.40
6824;DHT22;58633;49.470;11.004;2023-05-14T03:24:34;11.90;71.30
6824;DHT22;58633;49.470;11.004;2023-05-14T03:26:59;11.80;71.40
6824;DHT22;58633;49.470;11.004;2023-05-14T03:29:25;11.80;71.30
6824;DHT22;58633;49.470;11.004;2023-05-14T03:31:51;11.60;71.20
6824;DHT22;58633;49.470;11.004;2023-05-14T03:34:17;12.10;71.60
6824;DHT22;58633;49.470;11.004;2023-05-14T03:36:42;11.80;71.40
6824;DHT22;58633;49.470;11.004;2023-05-14T03:39:08;12.00;71.70
6824;DHT22;58633;49.470;11.004;2023-05-14T03:41:34;11.80;71.50
6824;DHT22;58633;49.470;11.004;2023-05-14T03:44:00;11.60;71.20
6824;DHT22;58633;49.470;11.004;2023-05-14T03:46:26;11.70;71.60
6824;DHT22;58633;49.470;11.004;2023-05-14T03:48:51;11.90;72.00
6824;DHT22;58633;49.470;11.004;2023-05-14T03:53:43;11.60;71.80
6824;DHT22;58633;49.470;11.004;2023-05-14T03:56:08;11.50;71.80
6824;DHT22;58633;49.470;11.004;2023-05-14T04:01:00;11.80;72.40
6824;DHT22;58633;49.470;11.004;2023-05-14T04:03:25;11.60;72.10
6824;DHT22;58633;49.470;11.004;2023-05-14T04:05:51;11.90;72.30
6824;DHT22;58633;49.470;11.004;2023-05-14T04:08:16;11.90;72.70
6824;DHT22;58633;49.470;11.004;2023-05-14T04:10:42;11.80;72.50
6824;DHT22;58633;49.470;11.004;2023-05-14T04:13:07;11.80;72.60
6824;DHT22;58633;49.470;11.004;2023-05-14T04:15:33;11.80;72.70
6824;DHT22;58633;49.470;11.004;2023-05-14T04:18:00;11.70;72.80
6824;DHT22;58633;49.470;11.004;2023-05-14T04:20:26;11.80;73.40
6824;DHT22;58633;49.470;11.004;2023-05-14T04:22:52;11.60;72.60
6824;DHT22;58633;49.470;11.004;2023-05-14T04:25:18;12.00;73.00
6824;DHT22;58633;49.470;11.004;2023-05-14T04:30:10;11.90;73.00
6824;DHT22;58633;49.470;11.004;2023-05-14T04:32:36;12.20;73.30
6824;DHT22;58633;49.470;11.004;2023-05-14T04:35:03;12.00;73.20
6824;DHT22;58633;49.470;11.004;2023-05-14T04:37:28;12.10;73.30
6824;DHT22;58633;49.470;11.004;2023-05-14T04:39:54;11.90;73.10
6824;DHT22;58633;49.470;11.004;2023-05-14T04:42:20;12.00;73.20
6824;DHT22;58633;49.470;11.004;2023-05-14T04:44:45;11.70;72.90
6824;DHT22;58633;49.470;11.004;2023-05-14T04:47:11;12.00;73.20
6824;DHT22;58633;49.470;11.004;2023-05-14T04:49:36;12.20;73.50
6824;DHT22;58633;49.470;11.004;2023-05-14T04:52:02;12.60;73.80
6824;DHT22;58633;49.470;11.004;2023-05-14T04:56:54;12.30;73.50
6824;DHT22;58633;49.470;11.004;2023-05-14T04:59:20;12.30;73.40
6824;DHT22;58633;49.470;11.004;2023-05-14T05:01:46;12.30;73.30
6824;DHT22;58633;49.470;11.004;2023-05-14T05:04:11;12.30;74.00
6824;DHT22;58633;49.470;11.004;2023-05-14T05:06:37;12.10;73.50
6824;DHT22;58633;49.470;11.004;2023-05-14T05:09:02;12.40;73.80
6824;DHT22;58633;49.470;11.004;2023-05-14T05:11:28;12.10;73.60
6824;DHT22;58633;49.470;11.004;2023-05-14T05:13:54;12.30;73.80
6824;DHT22;58633;49.470;11.004;2023-05-14T05:16:20;12.40;74.10
6824;DHT22;58633;49.470;11.004;2023-05-14T05:18:45;12.40;74.30
6824;DHT22;58633;49.470;11.004;2023-05-14T05:23:37;12.30;74.10
6824;DHT22;58633;49.470;11.004;2023-05-14T05:26:02;12.40;74.10
6824;DHT22;58633;49.470;11.004;2023-05-14T05:28:28;12.40;74.10
6824;DHT22;58633;49.470;11.004;2023-05-14T05:30:53;12.60;74.20
6824;DHT22;58633;49.470;11.004;2023-05-14T05:33:19;12.50;74.10
6824;DHT22;58633;49.470;11.004;2023-05-14T05:35:44;12.90;74.50
6824;DHT22;58633;49.470;11.004;2023-05-14T05:38:10;12.40;73.70
6824;DHT22;58633;49.470;11.004;2023-05-14T05:40:36;12.50;73.70
6824;DHT22;58633;49.470;11.004;2023-05-14T05:43:01;13.20;74.20
6824;DHT22;58633;49.470;11.004;2023-05-14T05:45:27;12.80;73.70
6824;DHT22;58633;49.470;11.004;2023-05-14T05:47:52;12.70;73.50
6824;DHT22;58633;49.470;11.004;2023-05-14T05:50:18;12.60;73.20
6824;DHT22;58633;49.470;11.004;2023-05-14T05:52:43;12.60;73.20
6824;DHT22;58633;49.470;11.004;2023-05-14T05:55:09;12.80;73.20
6824;DHT22;58633;49.470;11.004;2023-05-14T05:57:35;12.60;73.00
6824;DHT22;58633;49.470;11.004;2023-05-14T06:00:00;13.10;73.30
6824;DHT22;58633;49.470;11.004;2023-05-14T06:02:33;12.80;73.00
6824;DHT22;58633;49.470;11.004;2023-05-14T06:04:59;12.90;73.00
6824;DHT22;58633;49.470;11.004;2023-05-14T06:07:24;13.20;73.30
6824;DHT22;58633;49.470;11.004;2023-05-14T06:09:50;12.80;72.60
6824;DHT22;58633;49.470;11.004;2023-05-14T06:12:15;13.00;72.60
6824;DHT22;58633;49.470;11.004;2023-05-14T06:14:41;13.00;72.50
6824;DHT22;58633;49.470;11.004;2023-05-14T06:17:06;13.40;72.60
6824;DHT22;58633;49.470;11.004;2023-05-14T06:19:32;13.00;72.10
6824;DHT22;58633;49.470;11.004;2023-05-14T06:21:58;13.10;72.00
6824;DHT22;58633;49.470;11.004;2023-05-14T06:24:23;13.10;71.80
6824;DHT22;58633;49.470;11.004;2023-05-14T06:26:49;13.30;71.90
6824;DHT22;58633;49.470;11.004;2023-05-14T06:29:15;13.50;71.90
6824;DHT22;58633;49.470;11.004;2023-05-14T06:31:40;13.30;71.50
6824;DHT22;58633;49.470;11.004;2023-05-14T06:34:06;13.50;71.60
6824;DHT22;58633;49.470;11.004;2023-05-14T06:36:32;13.50;71.30
6824;DHT22;58633;49.470;11.004;2023-05-14T06:38:57;13.70;71.10
6824;DHT22;58633;49.470;11.004;2023-05-14T06:41:23;13.60;70.50
6824;DHT22;58633;49.470;11.004;2023-05-14T06:43:49;13.60;70.30
6824;DHT22;58633;49.470;11.004;2023-05-14T06:46:14;13.80;70.10
6824;DHT22;58633;49.470;11.004;2023-05-14T06:48:40;13.30;69.30
6824;DHT22;58633;49.470;11.004;2023-05-14T06:51:05;13.50;69.30
6824;DHT22;58633;49.470;11.004;2023-05-14T06:53:31;13.80;69.40
6824;DHT22;58633;49.470;11.004;2023-05-14T06:55:56;13.90;69.30
6824;DHT22;58633;49.470;11.004;2023-05-14T06:58:22;14.00;69.00
6824;DHT22;58633;49.470;11.004;2023-05-14T07:00:48;14.10;69.00
6824;DHT22;58633;49.470;11.004;2023-05-14T07:03:13;14.10;68.70
6824;DHT22;58633;49.470;11.004;2023-05-14T07:05:39;14.10;68.40
6824;DHT22;58633;49.470;11.004;2023-05-14T07:10:31;14.30;68.00
6824;DHT22;58633;49.470;11.004;2023-05-14T07:12:57;14.40;68.00
6824;DHT22;58633;49.470;11.004;2023-05-14T07:15:23;14.40;67.70
6824;DHT22;58633;49.470;11.004;2023-05-14T07:17:48;14.60;67.80
6824;DHT22;58633;49.470;11.004;2023-05-14T07:20:14;14.30;67.20
6824;DHT22;58633;49.470;11.004;2023-05-14T07:25:05;14.70;67.20
6824;DHT22;58633;49.470;11.004;2023-05-14T07:27:32;14.80;66.90
6824;DHT22;58633;49.470;11.004;2023-05-14T07:29:57;14.60;66.60
6824;DHT22;58633;49.470;11.004;2023-05-14T07:32:23;14.90;66.40
6824;DHT22;58633;49.470;11.004;2023-05-14T07:34:49;14.90;66.30
6824;DHT22;58633;49.470;11.004;2023-05-14T07:37:15;15.50;66.70
6824;DHT22;58633;49.470;11.004;2023-05-14T07:42:06;15.40;66.00
6824;DHT22;58633;49.470;11.004;2023-05-14T07:44:32;15.40;66.50
6824;DHT22;58633;49.470;11.004;2023-05-14T07:46:57;15.80;65.50
6824;DHT22;58633;49.470;11.004;2023-05-14T07:49:23;15.60;64.90
6824;DHT22;58633;49.470;11.004;2023-05-14T07:51:48;15.70;64.70
6824;DHT22;58633;49.470;11.004;2023-05-14T07:54:14;15.80;64.60
6824;DHT22;58633;49.470;11.004;2023-05-14T07:56:39;15.80;64.60
6824;DHT22;58633;49.470;11.004;2023-05-14T07:59:05;16.00;64.40
6824;DHT22;58633;49.470;11.004;2023-05-14T08:01:31;16.10;64.40
6824;DHT22;58633;49.470;11.004;2023-05-14T08:03:57;16.00;64.50
6824;DHT22;58633;49.470;11.004;2023-05-14T08:06:23;16.00;63.60
6824;DHT22;58633;49.470;11.004;2023-05-14T08:08:51;16.00;64.00
6824;DHT22;58633;49.470;11.004;2023-05-14T08:11:17;16.00;63.20
6824;DHT22;58633;49.470;11.004;2023-05-14T08:13:43;16.10;63.40
6824;DHT22;58633;49.470;11.004;2023-05-14T08:16:08;15.90;62.90
6824;DHT22;58633;49.470;11.004;2023-05-14T08:18:36;16.00;63.00
6824;DHT22;58633;49.470;11.004;2023-05-14T08:21:01;16.00;63.50
6824;DHT22;58633;49.470;11.004;2023-05-14T08:23:27;15.90;62.70
6824;DHT22;58633;49.470;11.004;2023-05-14T08:25:53;15.60;62.30
6824;DHT22;58633;49.470;11.004;2023-05-14T08:28:18;16.10;62.60
6824;DHT22;58633;49.470;11.004;2023-05-14T08:30:44;16.00;63.10
6824;DHT22;58633;49.470;11.004;2023-05-14T08:33:10;16.20;62.80
6824;DHT22;58633;49.470;11.004;2023-05-14T08:35:35;16.10;62.60
6824;DHT22;58633;49.470;11.004;2023-05-14T08:38:01;16.00;62.60
6824;DHT22;58633;49.470;11.004;2023-05-14T08:42:53;16.10;62.30
6824;DHT22;58633;49.470;11.004;2023-05-14T08:45:23;16.10;62.50
6824;DHT22;58633;49.470;11.004;2023-05-14T08:47:50;16.00;62.20
6824;DHT22;58633;49.470;11.004;2023-05-14T08:50:17;16.10;62.30
6824;DHT22;58633;49.470;11.004;2023-05-14T08:52:44;16.40;62.50
6824;DHT22;58633;49.470;11.004;2023-05-14T08:55:11;16.20;62.40
6824;DHT22;58633;49.470;11.004;2023-05-14T08:57:36;16.30;62.30
6824;DHT22;58633;49.470;11.004;2023-05-14T09:00:03;16.30;62.10
6824;DHT22;58633;49.470;11.004;2023-05-14T09:02:40;16.40;62.20
6824;DHT22;58633;49.470;11.004;2023-05-14T09:05:07;16.40;62.20
6824;DHT22;58633;49.470;11.004;2023-05-14T09:07:33;16.40;62.60
6824;DHT22;58633;49.470;11.004;2023-05-14T09:10:00;16.30;61.80
6824;DHT22;58633;49.470;11.004;2023-05-14T09:12:26;16.50;61.80
6824;DHT22;58633;49.470;11.004;2023-05-14T09:14:52;16.50;62.30
6824;DHT22;58633;49.470;11.004;2023-05-14T09:17:18;16.40;61.30
6824;DHT22;58633;49.470;11.004;2023-05-14T09:19:45;16.70;62.10
6824;DHT22;58633;49.470;11.004;2023-05-14T09:22:14;16.60;61.30
6824;DHT22;58633;49.470;11.004;2023-05-14T09:24:40;16.80;61.40
6824;DHT22;58633;49.470;11.004;2023-05-14T09:27:09;16.80;61.70
6824;DHT22;58633;49.470;11.004;2023-05-14T09:29:39;16.90;60.90
6824;DHT22;58633;49.470;11.004;2023-05-14T09:32:05;17.00;60.80
6824;DHT22;58633;49.470;11.004;2023-05-14T09:34:33;17.20;60.70
6824;DHT22;58633;49.470;11.004;2023-05-14T09:37:01;17.10;61.00
6824;DHT22;58633;49.470;11.004;2023-05-14T09:41:53;17.30;60.00
6824;DHT22;58633;49.470;11.004;2023-05-14T09:44:20;17.80;60.30
6824;DHT22;58633;49.470;11.004;2023-05-14T09:46:46;17.80;60.60
6824;DHT22;58633;49.470;11.004;2023-05-14T09:49:13;18.00;59.50
6824;DHT22;58633;49.470;11.004;2023-05-14T09:51:38;18.20;60.00
6824;DHT22;58633;49.470;11.004;2023-05-14T09:54:04;18.00;59.30
6824;DHT22;58633;49.470;11.004;2023-05-14T09:56:32;18.00;59.70
6824;DHT22;58633;49.470;11.004;2023-05-14T09:58:58;18.00;59.10
6824;DHT22;58633;49.470;11.004;2023-05-14T10:01:24;18.20;59.30
6824;DHT22;58633;49.470;11.004;2023-05-14T10:03:51;18.40;59.10
6824;DHT22;58633;49.470;11.004;2023-05-14T10:06:18;18.40;59.50
6824;DHT22;58633;49.470;11.004;2023-05-14T10:08:48;18.50;58.90
6824;DHT22;58633;49.470;11.004;2023-05-14T10:11:18;18.80;58.50
6824;DHT22;58633;49.470;11.004;2023-05-14T10:16:51;18.60;58.00
6824;DHT22;58633;49.470;11.004;2023-05-14T10:19:19;22.40;61.20
6824;DHT22;58633;49.470;11.004;2023-05-14T10:22:03;18.90;57.60
6824;DHT22;58633;49.470;11.004;2023-05-14T10:24:29;19.00;57.30
6824;DHT22;58633;49.470;11.004;2023-05-14T10:26:55;19.10;57.20
6824;DHT22;58633;49.470;11.004;2023-05-14T10:29:32;19.30;57.40
6824;DHT22;58633;49.470;11.004;2023-05-14T10:31:57;19.30;57.00
6824;DHT22;58633;49.470;11.004;2023-05-14T10:34:34;19.50;56.90
6824;DHT22;58633;49.470;11.004;2023-05-14T10:37:13;19.40;56.90
6824;DHT22;58633;49.470;11.004;2023-05-14T10:42:13;20.00;56.10
6824;DHT22;58633;49.470;11.004;2023-05-14T10:44:50;20.00;56.60
6824;DHT22;58633;49.470;11.004;2023-05-14T10:47:16;20.10;55.50
6824;DHT22;58633;49.470;11.004;2023-05-14T10:49:43;20.20;55.60
6824;DHT22;58633;49.470;11.004;2023-05-14T10:52:10;20.40;55.40
6824;DHT22;58633;49.470;11.004;2023-05-14T10:54:36;20.50;55.00
6824;DHT22;58633;49.470;11.004;2023-05-14T10:57:02;20.60;55.40
6824;DHT22;58633;49.470;11.004;2023-05-14T10:59:28;20.80;54.70
6824;DHT22;58633;49.470;11.004;2023-05-14T11:01:56;20.90;54.70
6824;DHT22;58633;49.470;11.004;2023-05-14T11:04:22;21.10;54.40
6824;DHT22;58633;49.470;11.004;2023-05-14T11:06:51;21.50;54.30
6824;DHT22;58633;49.470;11.004;2023-05-14T11:09:20;21.60;53.30
6824;DHT22;58633;49.470;11.004;2023-05-14T11:11:45;21.50;53.00
6824;DHT22;58633;49.470;11.004;2023-05-14T11:14:12;21.60;53.30
6824;DHT22;58633;49.470;11.004;2023-05-14T11:19:04;21.50;52.80
6824;DHT22;58633;49.470;11.004;2023-05-14T11:21:30;21.60;53.00
6824;DHT22;58633;49.470;11.004;2023-05-14T11:23:58;21.70;53.50
6824;DHT22;58633;49.470;11.004;2023-05-14T11:28:50;21.70;52.50
6824;DHT22;58633;49.470;11.004;2023-05-14T11:31:16;21.80;52.90
6824;DHT22;58633;49.470;11.004;2023-05-14T11:33:41;21.80;52.90
6824;DHT22;58633;49.470;11.004;2023-05-14T11:36:10;24.50;54.70
6824;DHT22;58633;49.470;11.004;2023-05-14T11:38:45;23.00;53.20
6824;DHT22;58633;49.470;11.004;2023-05-14T11:41:15;22.20;52.30
6824;DHT22;58633;49.470;11.004;2023-05-14T11:43:41;22.00;52.00
6824;DHT22;58633;49.470;11.004;2023-05-14T11:46:07;21.80;51.30
6824;DHT22;58633;49.470;11.004;2023-05-14T11:48:32;22.00;51.70
6824;DHT22;58633;49.470;11.004;2023-05-14T11:50:58;21.90;51.50
6824;DHT22;58633;49.470;11.004;2023-05-14T11:53:26;21.80;51.40
6824;DHT22;58633;49.470;11.004;2023-05-14T11:55:53;21.70;51.40
6824;DHT22;58633;49.470;11.004;2023-05-14T11:58:19;21.60;51.20
6824;DHT22;58633;49.470;11.004;2023-05-14T12:00:45;21.50;51.10
6824;DHT22;58633;49.470;11.004;2023-05-14T12:03:11;21.50;51.40
6824;DHT22;58633;49.470;11.004;2023-05-14T12:05:40;21.50;51.60
6824;DHT22;58633;49.470;11.004;2023-05-14T12:23:09;20.80;51.20
6824;DHT22;58633;49.470;11.004;2023-05-14T12:25:35;20.90;51.70
6824;DHT22;58633;49.470;11.004;2023-05-14T12:28:12;20.80;52.00
6824;DHT22;58633;49.470;11.004;2023-05-14T12:30:38;20.70;51.80
6824;DHT22;58633;49.470;11.004;2023-05-14T12:33:03;20.70;52.20
6824;DHT22;58633;49.470;11.004;2023-05-14T12:35:29;20.60;52.30
6824;DHT22;58633;49.470;11.004;2023-05-14T12:37:54;20.50;52.00
6824;DHT22;58633;49.470;11.004;2023-05-14T12:40:20;22.00;53.70
6824;DHT22;58633;49.470;11.004;2023-05-14T12:42:46;20.50;52.30
6824;DHT22;58633;49.470;11.004;2023-05-14T12:45:11;20.50;52.20
6824;DHT22;58633;49.470;11.004;2023-05-14T12:50:03;20.60;51.80
6824;DHT22;58633;49.470;11.004;2023-05-14T12:52:29;20.60;52.00
6824;DHT22;58633;49.470;11.004;2023-05-14T12:57:20;20.90;51.40
6824;DHT22;58633;49.470;11.004;2023-05-14T12:59:46;20.70;51.70
6824;DHT22;58633;49.470;11.004;2023-05-14T13:02:11;25.00;55.30
6824;DHT22;58633;49.470;11.004;2023-05-14T13:04:37;23.40;53.70
6824;DHT22;58633;49.470;11.004;2023-05-14T13:07:02;21.90;50.70
6824;DHT22;58633;49.470;11.004;2023-05-14T13:09:28;21.80;50.90
6824;DHT22;58633;49.470;11.004;2023-05-14T13:11:53;21.80;50.10
6824;DHT22;58633;49.470;11.004;2023-05-14T13:14:19;21.90;50.50
6824;DHT22;58633;49.470;11.004;2023-05-14T13:16:44;22.00;50.80
6824;DHT22;58633;49.470;11.004;2023-05-14T13:19:10;22.00;50.40
6824;DHT22;58633;49.470;11.004;2023-05-14T13:21:35;24.50;52.30
6824;DHT22;58633;49.470;11.004;2023-05-14T13:24:01;24.10;51.30
6824;DHT22;58633;49.470;11.004;2023-05-14T13:26:26;22.90;49.40
6824;DHT22;58633;49.470;11.004;2023-05-14T13:28:52;23.00;49.40
6824;DHT22;58633;49.470;11.004;2023-05-14T13:31:18;22.90;48.90
6824;DHT22;58633;49.470;11.004;2023-05-14T13:33:44;23.80;48.70
6824;DHT22;58633;49.470;11.004;2023-05-14T13:36:12;24.40;47.80
6824;DHT22;58633;49.470;11.004;2023-05-14T13:38:37;25.20;47.40
6824;DHT22;58633;49.470;11.004;2023-05-14T13:41:03;25.10;47.10
6824;DHT22;58633;49.470;11.004;2023-05-14T13:43:30;26.00;45.40
6824;DHT22;58633;49.470;11.004;2023-05-14T13:45:56;27.20;46.50
6824;DHT22;58633;49.470;11.004;2023-05-14T13:48:23;25.30;45.10
6824;DHT22;58633;49.470;11.004;2023-05-14T13:50:49;25.00;45.30
6824;DHT22;58633;49.470;11.004;2023-05-14T13:53:16;24.90;45.60
6824;DHT22;58633;49.470;11.004;2023-05-14T13:55:42;24.70;45.60
6824;DHT22;58633;49.470;11.004;2023-05-14T13:58:07;25.10;46.20
6824;DHT22;58633;49.470;11.004;2023-05-14T14:00:34;25.90;45.50
6824;DHT22;58633;49.470;11.004;2023-05-14T14:02:59;26.60;43.70
6824;DHT22;58633;49.470;11.004;2023-05-14T14:05:25;26.60;43.90
6824;DHT22;58633;49.470;11.004;2023-05-14T14:07:54;30.30;45.40
6824;DHT22;58633;49.470;11.004;2023-05-14T14:10:20;27.20;42.90
6824;DHT22;58633;49.470;11.004;2023-05-14T14:12:46;27.20;42.70
6824;DHT22;58633;49.470;11.004;2023-05-14T14:15:11;27.20;42.70
6824;DHT22;58633;49.470;11.004;2023-05-14T14:17:38;27.20;42.80
6824;DHT22;58633;49.470;11.004;2023-05-14T14:20:06;26.60;42.50
6824;DHT22;58633;49.470;11.004;2023-05-14T14:22:32;26.60;42.50
6824;DHT22;58633;49.470;11.004;2023-05-14T14:24:58;26.20;42.60
6824;DHT22;58633;49.470;11.004;2023-05-14T14:27:24;26.10;42.90
6824;DHT22;58633;49.470;11.004;2023-05-14T14:29:50;25.90;43.20
6824;DHT22;58633;49.470;11.004;2023-05-14T14:32:15;25.40;43.40
6824;DHT22;58633;49.470;11.004;2023-05-14T14:34:41;25.20;43.30
6824;DHT22;58633;49.470;11.004;2023-05-14T14:37:06;25.10;43.60
6824;DHT22;58633;49.470;11.004;2023-05-14T14:39:32;26.40;44.70
6824;DHT22;58633;49.470;11.004;2023-05-14T14:44:23;24.90;43.10
6824;DHT22;58633;49.470;11.004;2023-05-14T14:49:15;24.70;43.50
6824;DHT22;58633;49.470;11.004;2023-05-14T14:51:40;24.40;43.40
6824;DHT22;58633;49.470;11.004;2023-05-14T14:54:06;24.30;43.50
6824;DHT22;58633;49.470;11.004;2023-05-14T14:56:32;24.10;43.40
6824;DHT22;58633;49.470;11.004;2023-05-14T14:58:57;24.30;43.60
6824;DHT22;58633;49.470;11.004;2023-05-14T15:01:23;24.10;43.60
6824;DHT22;58633;49.470;11.004;2023-05-14T15:03:49;24.10;43.60
6824;DHT22;58633;49.470;11.004;2023-05-14T15:06:14;23.90;43.60
6824;DHT22;58633;49.470;11.004;2023-05-14T15:11:07;24.30;43.90
6824;DHT22;58633;49.470;11.004;2023-05-14T15:15:58;24.70;43.40
6824;DHT22;58633;49.470;11.004;2023-05-14T15:18:24;24.90;43.20
6824;DHT22;58633;49.470;11.004;2023-05-14T15:20:50;25.10;42.80
6824;DHT22;58633;49.470;11.004;2023-05-14T15:23:16;25.30;42.40
6824;DHT22;58633;49.470;11.004;2023-05-14T15:25:42;25.60;42.60
6824;DHT22;58633;49.470;11.004;2023-05-14T15:28:07;25.70;42.60
6824;DHT22;58633;49.470;11.004;2023-05-14T15:30:33;25.90;42.20
6824;DHT22;58633;49.470;11.004;2023-05-14T15:32:59;26.00;42.00
6824;DHT22;58633;49.470;11.004;2023-05-14T15:37:54;25.70;42.30
6824;DHT22;58633;49.470;11.004;2023-05-14T15:40:21;26.10;42.90
6824;DHT22;58633;49.470;11.004;2023-05-14T15:42:47;25.40;43.30
6824;DHT22;58633;49.470;11.004;2023-05-14T15:45:12;24.80;43.00
6824;DHT22;58633;49.470;11.004;2023-05-14T15:47:39;24.70;43.20
6824;DHT22;58633;49.470;11.004;2023-05-14T15:50:05;24.40;43.40
6824;DHT22;58633;49.470;11.004;2023-05-14T15:52:31;24.30;43.70
6824;DHT22;58633;49.470;11.004;2023-05-14T15:54:57;24.10;43.50
6824;DHT22;58633;49.470;11.004;2023-05-14T15:57:23;23.90;43.50
6824;DHT22;58633;49.470;11.004;2023-05-14T15:59:50;23.90;43.50
6824;DHT22;58633;49.470;11.004;2023-05-14T16:02:16;23.80;43.50
6824;DHT22;58633;49.470;11.004;2023-05-14T16:04:41;23.80;43.50
6824;DHT22;58633;49.470;11.004;2023-05-14T16:07:09;23.70;43.60
6824;DHT22;58633;49.470;11.004;2023-05-14T16:12:03;23.40;43.60
6824;DHT22;58633;49.470;11.004;2023-05-14T16:14:29;23.50;43.80
6824;DHT22;58633;49.470;11.004;2023-05-14T16:16:54;23.50;43.80
6824;DHT22;58633;49.470;11.004;2023-05-14T16:19:20;23.40;43.90
6824;DHT22;58633;49.470;11.004;2023-05-14T16:21:46;23.40;44.20
6824;DHT22;58633;49.470;11.004;2023-05-14T16:24:12;23.50;44.30
6824;DHT22;58633;49.470;11.004;2023-05-14T16:26:38;23.40;44.30
6824;DHT22;58633;49.470;11.004;2023-05-14T16:29:04;23.40;44.40
6824;DHT22;58633;49.470;11.004;2023-05-14T16:31:29;23.30;44.30
6824;DHT22;58633;49.470;11.004;2023-05-14T16:33:56;23.40;44.50
6824;DHT22;58633;49.470;11.004;2023-05-14T16:36:23;23.20;44.20
6824;DHT22;58633;49.470;11.004;2023-05-14T16:38:50;23.40;44.70
6824;DHT22;58633;49.470;11.004;2023-05-14T16:41:18;23.50;44.70
6824;DHT22;58633;49.470;11.004;2023-05-14T16:43:47;23.40;44.80
6824;DHT22;58633;49.470;11.004;2023-05-14T16:46:14;23.50;44.60
6824;DHT22;58633;49.470;11.004;2023-05-14T16:48:39;23.50;44.30